Spokeville, Wisconsin
Current Conditions -  °F | °C
As of 5:54 AM on Thursday 23 Oct 2014 (Local Time) from KMFI Reporting Station
Overcast Overcast  
Wind Chill: 38°   Ceiling: 5000
Heat Index: 43°   Visibility: 8mi
Dew Point: 39°   Wind: 9mph
Humidity: 86%   Direction: 150°SSE
Pressure: 30.09"   Gusts: NA
Location:  44.7314°N, 90.4931°W
Report Text: KMFI 231054Z AUTO 15008KT 8SM FEW038 OVC050 06/04 A3009 RMK AO2 RAB01E25 SLP198 P0001 T00610039
Loading
Personal Weather Stations






























Interactive Weather Map
Tropical Storm Tracking
New forecast layout! Learn more

10-Day Weather Forecast

Advertisements
Track Severe Weather on mobile